createdAt,value
2018-04-16T08:24:58.204Z,1976
2018-04-16T08:25:10.817Z,2048
2018-04-16T08:25:23.430Z,2116
2018-04-16T08:25:36.018Z,2152
2018-04-16T08:25:48.607Z,2132
2018-04-16T08:26:01.204Z,2116
2018-04-16T08:26:13.793Z,2100
2018-04-16T08:26:26.384Z,2084
2018-04-16T08:26:38.983Z,2088
2018-04-16T08:26:51.600Z,2072
2018-04-16T08:27:04.209Z,2072
2018-04-16T08:27:16.803Z,2092
2018-04-16T08:27:29.410Z,2092
2018-04-16T08:27:42.003Z,2056
2018-04-16T08:27:54.614Z,2008
2018-04-16T08:28:07.207Z,1944
2018-04-16T08:28:19.798Z,1892
2018-04-16T08:28:32.436Z,1868
2018-04-16T08:28:45.029Z,1880
2018-04-16T08:28:57.619Z,1928
2018-04-16T08:29:10.209Z,1952
2018-04-16T08:29:22.806Z,1988
2018-04-16T08:29:35.453Z,2032
2018-04-16T08:29:48.154Z,2040
2018-04-16T08:30:00.709Z,2024
2018-04-16T08:30:13.351Z,2020
2018-04-16T08:30:25.939Z,2032
2018-04-16T08:30:38.553Z,2060
2018-04-16T08:30:51.200Z,2064
2018-04-16T08:31:03.793Z,2064
2018-04-16T08:31:16.386Z,2088
2018-04-16T08:31:28.982Z,2128
2018-04-16T08:31:41.605Z,2164
2018-04-16T08:31:54.187Z,2176
2018-04-16T08:32:06.815Z,2208
2018-04-16T08:32:19.399Z,2276
2018-04-16T08:32:32.208Z,2336
2018-04-16T08:32:44.807Z,2400
2018-04-16T08:32:57.401Z,2440
2018-04-16T08:33:09.986Z,2456
2018-04-16T08:33:22.582Z,2476
2018-04-16T08:33:35.173Z,2500
2018-04-16T08:33:47.772Z,2552
2018-04-16T08:34:00.383Z,2608
2018-04-16T08:34:12.973Z,2652
2018-04-16T08:34:25.588Z,2656
2018-04-16T08:34:38.153Z,2640
2018-04-16T08:34:50.749Z,2608
2018-04-16T08:35:03.345Z,2572
2018-04-16T08:35:15.963Z,2556
2018-04-16T08:35:28.580Z,2580
2018-04-16T08:35:41.194Z,2612
2018-04-16T08:35:53.791Z,2628
2018-04-16T08:36:06.385Z,2620
2018-04-16T08:36:18.982Z,2620
2018-04-16T08:36:31.600Z,2612
2018-04-16T08:36:44.212Z,2612
2018-04-16T08:36:56.814Z,2636
2018-04-16T08:37:09.400Z,2672
2018-04-16T08:37:21.999Z,2696
2018-04-16T08:37:34.616Z,2716
2018-04-16T08:37:47.204Z,2752
2018-04-16T08:37:59.806Z,2784
2018-04-16T08:38:12.466Z,2832
2018-04-16T08:38:25.063Z,2892
2018-04-16T08:38:37.654Z,2924
2018-04-16T08:38:50.253Z,2928
2018-04-16T08:39:02.869Z,2912
2018-04-16T08:39:15.465Z,2888
2018-04-16T08:39:28.056Z,2864
2018-04-16T08:39:40.652Z,2868
2018-04-16T08:39:53.267Z,2920
2018-04-16T08:40:05.861Z,2960
2018-04-16T08:40:18.473Z,2952
2018-04-16T08:40:31.066Z,2956
2018-04-16T08:40:43.664Z,2960
2018-04-16T08:40:56.275Z,2944
2018-04-16T08:41:08.899Z,2896
2018-04-16T08:41:21.599Z,2840
2018-04-16T08:41:34.142Z,2804
2018-04-16T08:41:46.773Z,2824
2018-04-16T08:41:59.406Z,2884
2018-04-16T08:42:12.018Z,2932
2018-04-16T08:42:24.627Z,2916
2018-04-16T08:42:37.229Z,2860
2018-04-16T08:42:49.839Z,2796
2018-04-16T08:43:02.450Z,2752
2018-04-16T08:43:15.232Z,2728
2018-04-16T08:43:27.796Z,2688
2018-04-16T08:43:40.413Z,2648
2018-04-16T08:43:53.047Z,2620
2018-04-16T08:44:05.638Z,2600
2018-04-16T08:44:18.229Z,2572
2018-04-16T08:44:30.848Z,2556
2018-04-16T08:44:43.455Z,2548
2018-04-16T08:44:56.083Z,2528
2018-04-16T08:45:08.785Z,2500
2018-04-16T08:45:21.673Z,2476
2018-04-16T08:45:34.484Z,2468
2018-04-16T08:45:47.070Z,2484
2018-04-16T08:45:59.664Z,2496
2018-04-16T08:46:12.255Z,2512
2018-04-16T08:46:24.858Z,2516
2018-04-16T08:46:37.473Z,2528
2018-04-16T08:46:50.091Z,2556
2018-04-16T08:47:02.683Z,2596
2018-04-16T08:47:15.278Z,2628
2018-04-16T08:47:27.872Z,2644
2018-04-16T08:47:40.477Z,2644
2018-04-16T08:47:53.091Z,2652
2018-04-16T08:48:05.687Z,2672
2018-04-16T08:48:18.280Z,2700
2018-04-16T08:48:30.870Z,2736
2018-04-16T08:48:43.510Z,2776
2018-04-16T08:48:56.135Z,2816
2018-04-16T08:49:08.722Z,2844
2018-04-16T08:49:21.385Z,2856
2018-04-16T08:49:34.006Z,2864
2018-04-16T08:49:46.593Z,2868
2018-04-16T08:49:59.223Z,2888
2018-04-16T08:50:12.032Z,2900
2018-04-16T08:50:24.634Z,2916
2018-04-16T08:50:37.247Z,2936
2018-04-16T08:50:49.847Z,2924
2018-04-16T08:51:02.440Z,2912
2018-04-16T08:51:15.034Z,2900
2018-04-16T08:51:27.651Z,2876
2018-04-16T08:51:40.265Z,2864
2018-04-16T08:51:52.866Z,2864
2018-04-16T08:52:05.463Z,2856
2018-04-16T08:52:18.079Z,2836
2018-04-16T08:52:30.701Z,2792
2018-04-16T08:52:43.343Z,2740
2018-04-16T08:52:55.926Z,2692
2018-04-16T08:53:08.533Z,2664
2018-04-16T08:53:21.174Z,2636
2018-04-16T08:53:33.785Z,2608
2018-04-16T08:53:46.383Z,2580
2018-04-16T08:53:59.059Z,2544
2018-04-16T08:54:11.742Z,2508
2018-04-16T08:54:24.416Z,2504
2018-04-16T08:54:37.041Z,2504
2018-04-16T08:54:49.647Z,2508
2018-04-16T08:55:02.271Z,2524
2018-04-16T08:55:14.852Z,2556
2018-04-16T08:55:27.448Z,2592
2018-04-16T08:55:40.065Z,2616
2018-04-16T08:55:52.657Z,2600
2018-04-16T08:56:05.276Z,2560
2018-04-16T08:56:17.890Z,2528
2018-04-16T08:56:30.489Z,2528
2018-04-16T08:56:43.107Z,2520
2018-04-16T08:56:55.734Z,2476
2018-04-16T08:57:08.361Z,2428
2018-04-16T08:57:20.947Z,2380
2018-04-16T08:57:33.554Z,2340
2018-04-16T08:57:46.155Z,2304
2018-04-16T08:57:58.747Z,2264
2018-04-16T08:58:11.339Z,2212
2018-04-16T08:58:23.928Z,2160
2018-04-16T08:58:36.523Z,2100
2018-04-16T08:58:49.120Z,2044
2018-04-16T08:59:01.733Z,2016
2018-04-16T08:59:14.318Z,1992
2018-04-16T08:59:26.936Z,1964
2018-04-16T08:59:39.523Z,1920
2018-04-16T08:59:52.085Z,1876
2018-04-16T09:00:04.789Z,1808
2018-04-16T09:00:17.350Z,1724
2018-04-16T09:00:29.963Z,1644
2018-04-16T09:00:42.552Z,1580
2018-04-16T09:00:55.153Z,1536
2018-04-16T09:01:07.773Z,1508
2018-04-16T09:01:20.369Z,1480
2018-04-16T09:01:32.983Z,1444
2018-04-16T09:01:45.577Z,1396
2018-04-16T09:01:58.174Z,1352
2018-04-16T09:02:10.764Z,1312
2018-04-16T09:02:23.356Z,1280
2018-04-16T09:02:35.944Z,1256
2018-04-16T09:02:48.542Z,1228
2018-04-16T09:03:01.132Z,1212
2018-04-16T09:03:13.759Z,1208
2018-04-16T09:03:26.357Z,1204
2018-04-16T09:03:38.987Z,1196
2018-04-16T09:03:51.607Z,1196
2018-04-16T09:04:04.198Z,1192
2018-04-16T09:04:16.779Z,1192
2018-04-16T09:04:29.381Z,1200
2018-04-16T09:04:41.977Z,1196
2018-04-16T09:04:54.562Z,1196
2018-04-16T09:05:07.159Z,1204
2018-04-16T09:05:19.774Z,1200
2018-04-16T09:05:32.374Z,1196
2018-04-16T09:05:44.985Z,1196
2018-04-16T09:05:57.579Z,1192
2018-04-16T09:06:10.189Z,1192
2018-04-16T09:06:22.786Z,1192
2018-04-16T09:06:35.384Z,1204
2018-04-16T09:06:47.979Z,1228
2018-04-16T09:07:00.571Z,1264
2018-04-16T09:07:13.185Z,1296
2018-04-16T09:07:25.779Z,1316
2018-04-16T09:07:38.378Z,1316
2018-04-16T09:07:50.989Z,1304
2018-04-16T09:08:03.579Z,1296
2018-04-16T09:08:16.176Z,1296
2018-04-16T09:08:28.790Z,1296
2018-04-16T09:08:41.414Z,1292
2018-04-16T09:08:53.997Z,1280
2018-04-16T09:09:06.586Z,1272
2018-04-16T09:09:19.179Z,1260
2018-04-16T09:09:31.799Z,1252
2018-04-16T09:09:44.418Z,1240
2018-04-16T09:09:57.005Z,1228
2018-04-16T09:10:09.605Z,1208
2018-04-16T09:10:22.200Z,1180
2018-04-16T09:10:34.793Z,1148
2018-04-16T09:10:47.437Z,1120
2018-04-16T09:11:00.027Z,1104
2018-04-16T09:11:12.615Z,1096
2018-04-16T09:11:25.218Z,1092
2018-04-16T09:11:37.831Z,1104
2018-04-16T09:11:50.421Z,1120
2018-04-16T09:12:03.010Z,1148
2018-04-16T09:12:15.608Z,1168
2018-04-16T09:12:28.223Z,1192
2018-04-16T09:12:40.835Z,1200
2018-04-16T09:12:53.435Z,1212
2018-04-16T09:13:06.060Z,1228
2018-04-16T09:13:18.665Z,1236
2018-04-16T09:13:31.273Z,1244
2018-04-16T09:13:43.925Z,1248
2018-04-16T09:13:56.548Z,1256
2018-04-16T09:14:09.134Z,1264
2018-04-16T09:14:21.729Z,1268
2018-04-16T09:14:34.321Z,1272
2018-04-16T09:14:46.916Z,1276
2018-04-16T09:14:59.527Z,1272
2018-04-16T09:15:12.125Z,1272
2018-04-16T09:15:24.743Z,1264
2018-04-16T09:15:37.350Z,1264
2018-04-16T09:15:49.949Z,1272
2018-04-16T09:16:02.544Z,1280
2018-04-16T09:16:15.136Z,1300
2018-04-16T09:16:27.731Z,1308
2018-04-16T09:16:40.323Z,1304
2018-04-16T09:16:52.918Z,1292
2018-04-16T09:17:05.512Z,1256
2018-04-16T09:17:18.130Z,1220
2018-04-16T09:17:30.697Z,1196
2018-04-16T09:17:43.317Z,1180
2018-04-16T09:17:55.939Z,1176
2018-04-16T09:18:08.725Z,1176
2018-04-16T09:18:21.358Z,1180
2018-04-16T09:18:33.915Z,1180
2018-04-16T09:18:46.514Z,1176
2018-04-16T09:18:59.180Z,1172
2018-04-16T09:19:11.823Z,1168
2018-04-16T09:19:24.417Z,1164
2018-04-16T09:19:37.033Z,1160
2018-04-16T09:19:49.622Z,1164
2018-04-16T09:20:02.215Z,1172
2018-04-16T09:20:14.803Z,1176
2018-04-16T09:20:27.397Z,1192
2018-04-16T09:20:39.991Z,1212
2018-04-16T09:20:52.604Z,1236
2018-04-16T09:21:05.221Z,1260
2018-04-16T09:21:17.810Z,1272
2018-04-16T09:21:30.404Z,1296
2018-04-16T09:21:43.000Z,1312
2018-04-16T09:21:55.620Z,1344
2018-04-16T09:22:08.210Z,1384
2018-04-16T09:22:20.796Z,1432
2018-04-16T09:22:33.393Z,1472
2018-04-16T09:22:45.984Z,1516
2018-04-16T09:22:58.578Z,1580
2018-04-16T09:23:11.167Z,1632
2018-04-16T09:23:23.758Z,1684
2018-04-16T09:23:36.402Z,1724
2018-04-16T09:23:48.993Z,1760
2018-04-16T09:24:01.588Z,1784
2018-04-16T09:24:14.231Z,1820
2018-04-16T09:24:26.844Z,1872
2018-04-16T09:24:39.444Z,1912
2018-04-16T09:24:52.037Z,1924
2018-04-16T09:25:04.631Z,1932
2018-04-16T09:25:17.227Z,1948
2018-04-16T09:25:29.816Z,1924
2018-04-16T09:25:42.413Z,1904
2018-04-16T09:25:55.027Z,1916
2018-04-16T09:26:07.619Z,1948
2018-04-16T09:26:20.210Z,2000
2018-04-16T09:26:32.825Z,2024
2018-04-16T09:26:45.424Z,2016
2018-04-16T09:26:58.012Z,2008
2018-04-16T09:27:10.609Z,2000
2018-04-16T09:27:23.195Z,1988
2018-04-16T09:27:35.833Z,1988
2018-04-16T09:27:48.382Z,1984
2018-04-16T09:28:00.973Z,1968
2018-04-16T09:28:13.575Z,1968
2018-04-16T09:28:26.198Z,1968
2018-04-16T09:28:38.803Z,1964
2018-04-16T09:28:51.398Z,1984
2018-04-16T09:29:04.026Z,1996
2018-04-16T09:29:16.833Z,1996
2018-04-16T09:29:29.428Z,1956
2018-04-16T09:29:42.018Z,1928
2018-04-16T09:29:54.616Z,1912
2018-04-16T09:30:07.212Z,1908
2018-04-16T09:30:19.828Z,1908
2018-04-16T09:30:32.422Z,1920
2018-04-16T09:30:45.065Z,1944
2018-04-16T09:30:57.673Z,1948
2018-04-16T09:31:10.272Z,1944
2018-04-16T09:31:22.864Z,1924
2018-04-16T09:31:35.453Z,1904
2018-04-16T09:31:48.053Z,1892
2018-04-16T09:32:00.669Z,1896
2018-04-16T09:32:13.262Z,1916
2018-04-16T09:32:25.882Z,1912
2018-04-16T09:32:38.467Z,1868
2018-04-16T09:32:51.061Z,1824
2018-04-16T09:33:03.690Z,1796
2018-04-16T09:33:16.262Z,1788
2018-04-16T09:33:28.850Z,1792
2018-04-16T09:33:41.447Z,1804
2018-04-16T09:33:54.035Z,1812
2018-04-16T09:34:06.624Z,1804
2018-04-16T09:34:19.239Z,1780
2018-04-16T09:34:31.830Z,1748
2018-04-16T09:34:44.425Z,1720
2018-04-16T09:34:57.040Z,1680
2018-04-16T09:35:09.661Z,1632
2018-04-16T09:35:22.234Z,1580
2018-04-16T09:35:34.825Z,1516
2018-04-16T09:35:47.467Z,1460
2018-04-16T09:36:00.063Z,1404
2018-04-16T09:36:12.660Z,1372
2018-04-16T09:36:25.328Z,1348
2018-04-16T09:36:37.918Z,1340
2018-04-16T09:36:50.519Z,1340
2018-04-16T09:37:03.109Z,1328
2018-04-16T09:37:15.722Z,1332
2018-04-16T09:37:28.317Z,1368
2018-04-16T09:37:40.912Z,1420
2018-04-16T09:37:53.535Z,1460
2018-04-16T09:38:06.137Z,1480
2018-04-16T09:38:18.697Z,1460
2018-04-16T09:38:31.293Z,1436
2018-04-16T09:38:43.914Z,1416
2018-04-16T09:38:56.497Z,1396
2018-04-16T09:39:09.099Z,1376
2018-04-16T09:39:21.715Z,1356
2018-04-16T09:39:34.316Z,1340
2018-04-16T09:39:46.903Z,1332
2018-04-16T09:39:59.495Z,1348
2018-04-16T09:40:12.099Z,1396
2018-04-16T09:40:24.712Z,1456
2018-04-16T09:40:37.307Z,1516
2018-04-16T09:40:49.904Z,1580
2018-04-16T09:41:02.518Z,1640
2018-04-16T09:41:15.106Z,1684
2018-04-16T09:41:27.702Z,1716
2018-04-16T09:41:40.296Z,1740
2018-04-16T09:41:52.912Z,1752
2018-04-16T09:42:05.531Z,1760
2018-04-16T09:42:18.149Z,1748
2018-04-16T09:42:30.860Z,1708
2018-04-16T09:42:43.498Z,1688
2018-04-16T09:42:56.101Z,1700
2018-04-16T09:43:08.690Z,1740
2018-04-16T09:43:21.279Z,1760
2018-04-16T09:43:33.873Z,1744
2018-04-16T09:43:46.466Z,1708
2018-04-16T09:43:59.071Z,1708
2018-04-16T09:44:11.711Z,1748
2018-04-16T09:44:24.307Z,1804
2018-04-16T09:44:36.901Z,1860
2018-04-16T09:44:49.485Z,1912
2018-04-16T09:45:02.087Z,1940
2018-04-16T09:45:14.702Z,1948
2018-04-16T09:45:27.318Z,1940
2018-04-16T09:45:39.909Z,1924
2018-04-16T09:45:52.507Z,1888
2018-04-16T09:46:05.093Z,1848
2018-04-16T09:46:17.687Z,1816
2018-04-16T09:46:30.303Z,1776
2018-04-16T09:46:42.895Z,1768
2018-04-16T09:46:55.488Z,1760
2018-04-16T09:47:08.114Z,1768
2018-04-16T09:47:20.738Z,1788
2018-04-16T09:47:33.331Z,1808
2018-04-16T09:47:45.919Z,1820
2018-04-16T09:47:58.512Z,1812
2018-04-16T09:48:11.107Z,1800
2018-04-16T09:48:23.715Z,1796
2018-04-16T09:48:36.315Z,1784
2018-04-16T09:48:48.931Z,1776
2018-04-16T09:49:01.546Z,1768
2018-04-16T09:49:14.188Z,1748
2018-04-16T09:49:26.771Z,1732
2018-04-16T09:49:39.366Z,1728
2018-04-16T09:49:51.961Z,1720
2018-04-16T09:50:04.574Z,1708
2018-04-16T09:50:17.204Z,1700
2018-04-16T09:50:29.764Z,1704
2018-04-16T09:50:42.353Z,1724
2018-04-16T09:50:54.947Z,1772
2018-04-16T09:51:07.525Z,1824
2018-04-16T09:51:20.121Z,1868
2018-04-16T09:51:32.735Z,1900
2018-04-16T09:51:45.354Z,1904
2018-04-16T09:51:57.942Z,1896
2018-04-16T09:52:10.536Z,1896
2018-04-16T09:52:23.150Z,1868
2018-04-16T09:52:35.745Z,1832
2018-04-16T09:52:48.356Z,1792
2018-04-16T09:53:00.949Z,1784
2018-04-16T09:53:13.545Z,1788
2018-04-16T09:53:26.159Z,1832
2018-04-16T09:53:38.758Z,1900
2018-04-16T09:53:51.381Z,1976
2018-04-16T09:54:03.992Z,2068
2018-04-16T09:54:16.601Z,2132
2018-04-16T09:54:29.201Z,2152
2018-04-16T09:54:41.813Z,2184
2018-04-16T09:54:54.426Z,2208
2018-04-16T09:55:07.022Z,2200
2018-04-16T09:55:19.617Z,2212
2018-04-16T09:55:32.235Z,2248
2018-04-16T09:55:44.848Z,2284
2018-04-16T09:55:57.505Z,2308
2018-04-16T09:56:10.177Z,2328
2018-04-16T09:56:23.011Z,2388
2018-04-16T09:56:35.625Z,2460
2018-04-16T09:56:48.218Z,2472
2018-04-16T09:57:00.809Z,2448
2018-04-16T09:57:13.404Z,2396
2018-04-16T09:57:26.019Z,2332
2018-04-16T09:57:38.609Z,2268
2018-04-16T09:57:51.204Z,2240
2018-04-16T09:58:03.822Z,2244
2018-04-16T09:58:16.434Z,2268
2018-04-16T09:58:29.080Z,2304
2018-04-16T09:58:41.621Z,2352
2018-04-16T09:58:54.215Z,2384
2018-04-16T09:59:06.855Z,2396
2018-04-16T09:59:19.417Z,2416
2018-04-16T09:59:32.010Z,2412
2018-04-16T09:59:44.607Z,2332
2018-04-16T09:59:57.198Z,2256
2018-04-16T10:00:09.791Z,2188
2018-04-16T10:00:22.449Z,2120
2018-04-16T10:00:35.006Z,2096
2018-04-16T10:00:47.595Z,2116
2018-04-16T10:01:00.216Z,2136
2018-04-16T10:01:12.804Z,2144
2018-04-16T10:01:25.423Z,2144
2018-04-16T10:01:38.043Z,2164
2018-04-16T10:01:50.644Z,2188
2018-04-16T10:02:03.291Z,2236
2018-04-16T10:02:15.935Z,2280
2018-04-16T10:02:28.567Z,2324
2018-04-16T10:02:41.161Z,2340
2018-04-16T10:02:53.747Z,2352
2018-04-16T10:03:06.345Z,2392
2018-04-16T10:03:18.937Z,2436
2018-04-16T10:03:31.524Z,2432
2018-04-16T10:03:44.116Z,2428
2018-04-16T10:03:56.717Z,2448
2018-04-16T10:04:09.360Z,2484
2018-04-16T10:04:21.944Z,2540
2018-04-16T10:04:34.569Z,2628
2018-04-16T10:04:47.155Z,2700
2018-04-16T10:04:59.772Z,2744
2018-04-16T10:05:12.365Z,2780
2018-04-16T10:05:24.960Z,2788
2018-04-16T10:05:37.555Z,2788
2018-04-16T10:05:50.151Z,2764
2018-04-16T10:06:02.751Z,2732
2018-04-16T10:06:15.336Z,2696
2018-04-16T10:06:27.964Z,2652
2018-04-16T10:06:40.546Z,2620
2018-04-16T10:06:53.169Z,2596
2018-04-16T10:07:05.785Z,2556
2018-04-16T10:07:18.400Z,2528
2018-04-16T10:07:30.992Z,2484
2018-04-16T10:07:45.067Z,2416
2018-04-16T10:07:57.727Z,2344
2018-04-16T10:08:10.413Z,2276
2018-04-16T10:08:23.150Z,2228
2018-04-16T10:08:35.828Z,2192
2018-04-16T10:08:48.688Z,2152
2018-04-16T10:09:04.395Z,2124
2018-04-16T10:09:17.080Z,2124
2018-04-16T10:09:29.744Z,2132
2018-04-16T10:09:42.336Z,2148
2018-04-16T10:09:54.929Z,2160
2018-04-16T10:10:07.525Z,2184
2018-04-16T10:10:20.122Z,2196
2018-04-16T10:10:32.736Z,2140
2018-04-16T10:10:45.336Z,2060
2018-04-16T10:10:57.930Z,1992
2018-04-16T10:11:10.528Z,1964
2018-04-16T10:11:23.150Z,1988
2018-04-16T10:11:35.704Z,2024
2018-04-16T10:11:48.297Z,2060
2018-04-16T10:12:00.891Z,2112
2018-04-16T10:12:13.555Z,2212
2018-04-16T10:12:26.171Z,2256
2018-04-16T10:12:38.783Z,2232
2018-04-16T10:12:51.381Z,2216
2018-04-16T10:13:03.973Z,2180
2018-04-16T10:13:16.571Z,2124
2018-04-16T10:13:29.188Z,2104
2018-04-16T10:13:41.798Z,2064
2018-04-16T10:13:54.497Z,2036
2018-04-16T10:14:07.155Z,2028
2018-04-16T10:14:19.737Z,2044
2018-04-16T10:14:32.358Z,2052
2018-04-16T10:14:44.947Z,2052
2018-04-16T10:14:57.540Z,2028
2018-04-16T10:15:10.152Z,1992
2018-04-16T10:15:22.961Z,1988
2018-04-16T10:15:35.593Z,1988
2018-04-16T10:15:48.193Z,2000
2018-04-16T10:16:00.808Z,2008
2018-04-16T10:16:13.391Z,2024
2018-04-16T10:16:25.988Z,2052
2018-04-16T10:16:38.601Z,2108
2018-04-16T10:16:51.244Z,2176
2018-04-16T10:17:03.839Z,2196
2018-04-16T10:17:16.480Z,2164
2018-04-16T10:17:29.072Z,2124
2018-04-16T10:17:41.651Z,2144
2018-04-16T10:17:54.304Z,2156
2018-04-16T10:18:06.884Z,2136
2018-04-16T10:18:19.524Z,2128
2018-04-16T10:18:32.136Z,2104
2018-04-16T10:18:44.749Z,2064
2018-04-16T10:18:57.338Z,2048
2018-04-16T10:19:09.933Z,2064
2018-04-16T10:19:22.531Z,2088
2018-04-16T10:19:35.144Z,2108
2018-04-16T10:19:47.736Z,2100
2018-04-16T10:20:00.330Z,2084
2018-04-16T10:20:12.926Z,2104
2018-04-16T10:20:25.517Z,2124
2018-04-16T10:20:38.113Z,2128
2018-04-16T10:20:50.702Z,2076
2018-04-16T10:21:03.292Z,2016
2018-04-16T10:21:15.889Z,1972
2018-04-16T10:21:28.500Z,1924
2018-04-16T10:21:41.091Z,1900
2018-04-16T10:21:53.686Z,1916
2018-04-16T10:22:06.277Z,1912
2018-04-16T10:22:18.877Z,1888
2018-04-16T10:22:31.473Z,1872
2018-04-16T10:22:44.088Z,1840
2018-04-16T10:22:56.680Z,1808
2018-04-16T10:23:09.298Z,1812
2018-04-16T10:23:21.889Z,1820
2018-04-16T10:23:34.501Z,1812
2018-04-16T10:23:47.095Z,1796
2018-04-16T10:23:59.688Z,1776
2018-04-16T10:24:12.312Z,1772
2018-04-16T10:24:24.925Z,1752
2018-04-16T10:24:37.521Z,1740
2018-04-16T10:24:50.115Z,1748
2018-04-16T10:25:02.707Z,1740
2018-04-16T10:25:15.331Z,1724
2018-04-16T10:25:28.187Z,1708
2018-04-16T10:25:40.776Z,1684
2018-04-16T10:25:53.396Z,1656
2018-04-16T10:26:06.016Z,1624
2018-04-16T10:26:18.626Z,1584
2018-04-16T10:26:31.260Z,1540
2018-04-16T10:26:43.840Z,1500
2018-04-16T10:26:56.479Z,1464
2018-04-16T10:27:09.077Z,1436
2018-04-16T10:27:21.692Z,1404
2018-04-16T10:27:34.334Z,1408
2018-04-16T10:27:46.951Z,1432
2018-04-16T10:27:59.759Z,1460
2018-04-16T10:28:12.417Z,1468
2018-04-16T10:28:25.003Z,1464
2018-04-16T10:28:37.595Z,1452
2018-04-16T10:28:50.190Z,1432
2018-04-16T10:29:02.804Z,1420
2018-04-16T10:29:15.423Z,1400
2018-04-16T10:29:28.013Z,1348
2018-04-16T10:29:40.606Z,1284
2018-04-16T10:29:53.204Z,1224
2018-04-16T10:30:05.846Z,1168
2018-04-16T10:30:18.463Z,1128
2018-04-16T10:30:31.059Z,1092
2018-04-16T10:30:43.650Z,1072
2018-04-16T10:30:56.287Z,1068
2018-04-16T10:31:08.881Z,1084
2018-04-16T10:31:21.495Z,1112
2018-04-16T10:31:34.092Z,1148
2018-04-16T10:31:46.711Z,1196
2018-04-16T10:31:59.309Z,1260
2018-04-16T10:32:11.917Z,1340
2018-04-16T10:32:24.561Z,1408
2018-04-16T10:32:37.105Z,1468
2018-04-16T10:32:49.698Z,1536
2018-04-16T10:33:02.300Z,1608
2018-04-16T10:33:14.913Z,1684
2018-04-16T10:33:27.511Z,1740
2018-04-16T10:33:40.123Z,1760
2018-04-16T10:33:52.742Z,1788
2018-04-16T10:34:05.352Z,1800
2018-04-16T10:34:17.930Z,1776
2018-04-16T10:34:30.524Z,1736
2018-04-16T10:34:43.130Z,1708
2018-04-16T10:34:55.708Z,1680
2018-04-16T10:35:08.291Z,1652
2018-04-16T10:35:20.885Z,1636
2018-04-16T10:35:33.473Z,1616
2018-04-16T10:35:46.065Z,1600
2018-04-16T10:35:58.653Z,1584
2018-04-16T10:36:11.245Z,1568
2018-04-16T10:36:23.834Z,1540
2018-04-16T10:36:36.425Z,1528
2018-04-16T10:36:49.018Z,1568
2018-04-16T10:37:01.610Z,1636
2018-04-16T10:37:14.224Z,1720
2018-04-16T10:37:26.814Z,1796
2018-04-16T10:37:39.412Z,1872
2018-04-16T10:37:52.020Z,1932
2018-04-16T10:38:04.614Z,1960
2018-04-16T10:38:17.210Z,1948
2018-04-16T10:38:29.822Z,1912
2018-04-16T10:38:42.416Z,1872
2018-04-16T10:38:55.032Z,1816
2018-04-16T10:39:07.623Z,1760
2018-04-16T10:39:20.212Z,1704
2018-04-16T10:39:32.803Z,1644
2018-04-16T10:39:45.401Z,1580
2018-04-16T10:39:58.009Z,1520
2018-04-16T10:40:10.598Z,1508
2018-04-16T10:40:23.196Z,1548
2018-04-16T10:40:35.812Z,1584
2018-04-16T10:40:48.455Z,1592
2018-04-16T10:41:01.134Z,1596
2018-04-16T10:41:13.668Z,1596
2018-04-16T10:41:26.311Z,1580
2018-04-16T10:41:38.903Z,1524
2018-04-16T10:41:51.492Z,1464
2018-04-16T10:42:04.092Z,1404
2018-04-16T10:42:16.708Z,1352
2018-04-16T10:42:29.299Z,1312
2018-04-16T10:42:41.893Z,1340
2018-04-16T10:42:54.483Z,1416
2018-04-16T10:43:07.074Z,1504
2018-04-16T10:43:19.668Z,1576
2018-04-16T10:43:32.267Z,1628
2018-04-16T10:43:44.880Z,1688
2018-04-16T10:43:57.474Z,1760
2018-04-16T10:44:10.067Z,1780
2018-04-16T10:44:22.659Z,1768
2018-04-16T10:44:35.249Z,1748
2018-04-16T10:44:47.845Z,1780
2018-04-16T10:45:00.436Z,1844
2018-04-16T10:45:13.044Z,1908
2018-04-16T10:45:25.656Z,1980
2018-04-16T10:45:38.253Z,2072
2018-04-16T10:45:50.870Z,2108
2018-04-16T10:46:03.458Z,2100
2018-04-16T10:46:16.059Z,2092
2018-04-16T10:46:28.640Z,2056
2018-04-16T10:46:41.242Z,1984
2018-04-16T10:46:53.837Z,1924
2018-04-16T10:47:06.500Z,1896
2018-04-16T10:47:19.099Z,1916
2018-04-16T10:47:31.687Z,1936
2018-04-16T10:47:44.333Z,1904
2018-04-16T10:47:56.947Z,1860
2018-04-16T10:48:09.543Z,1836
2018-04-16T10:48:22.134Z,1832
2018-04-16T10:48:34.739Z,1848
2018-04-16T10:48:47.345Z,1868
2018-04-16T10:48:59.938Z,1892
2018-04-16T10:49:12.532Z,1924
2018-04-16T10:49:25.132Z,1956
2018-04-16T10:49:37.804Z,2020
2018-04-16T10:49:50.391Z,2080
2018-04-16T10:50:02.984Z,2120
2018-04-16T10:50:15.597Z,2180
2018-04-16T10:50:28.194Z,2236
2018-04-16T10:50:40.785Z,2264
2018-04-16T10:50:53.397Z,2304
2018-04-16T10:51:05.992Z,2348
2018-04-16T10:51:18.602Z,2384
2018-04-16T10:51:31.198Z,2404
2018-04-16T10:51:43.791Z,2416
2018-04-16T10:51:56.456Z,2432
2018-04-16T10:52:09.098Z,2452
2018-04-16T10:52:21.688Z,2480
2018-04-16T10:52:34.283Z,2500
2018-04-16T10:52:46.903Z,2524
2018-04-16T10:52:59.513Z,2524
2018-04-16T10:53:12.113Z,2548
2018-04-16T10:53:24.705Z,2588
2018-04-16T10:53:37.291Z,2600
2018-04-16T10:53:49.946Z,2596
2018-04-16T10:54:02.562Z,2580
2018-04-16T10:54:15.174Z,2556
2018-04-16T10:54:27.771Z,2524
2018-04-16T10:54:40.387Z,2500
2018-04-16T10:54:52.981Z,2492
2018-04-16T10:55:05.613Z,2492
2018-04-16T10:55:18.236Z,2484
2018-04-16T10:55:30.873Z,2456
2018-04-16T10:55:43.457Z,2408
2018-04-16T10:55:56.060Z,2372
2018-04-16T10:56:08.670Z,2336
2018-04-16T10:56:21.264Z,2308
2018-04-16T10:56:33.887Z,2312
2018-04-16T10:56:46.497Z,2380
2018-04-16T10:56:59.095Z,2504
2018-04-16T10:57:11.715Z,2652
2018-04-16T10:57:24.306Z,2768
2018-04-16T10:57:36.905Z,2808
2018-04-16T10:57:49.526Z,2800
2018-04-16T10:58:02.141Z,2824
2018-04-16T10:58:14.736Z,2912
2018-04-16T10:58:27.378Z,3044
2018-04-16T10:58:39.980Z,3128
2018-04-16T10:58:52.604Z,3096
2018-04-16T10:59:05.242Z,2968
2018-04-16T10:59:17.867Z,2800
2018-04-16T10:59:30.457Z,2652
2018-04-16T10:59:43.050Z,2512
2018-04-16T10:59:55.645Z,2420
2018-04-16T11:00:08.238Z,2360
2018-04-16T11:00:20.832Z,2348
2018-04-16T11:00:33.421Z,2404
2018-04-16T11:00:46.014Z,2428
2018-04-16T11:00:58.629Z,2360
2018-04-16T11:01:11.194Z,2244
2018-04-16T11:01:23.791Z,2132
2018-04-16T11:01:36.405Z,2004
2018-04-16T11:01:48.996Z,1916
2018-04-16T11:02:01.586Z,1852
2018-04-16T11:02:14.201Z,1808
2018-04-16T11:02:26.792Z,1796
2018-04-16T11:02:39.384Z,1812
2018-04-16T11:02:52.007Z,1856
2018-04-16T11:03:04.651Z,1920
2018-04-16T11:03:17.241Z,1988
2018-04-16T11:03:29.843Z,2032
2018-04-16T11:03:42.481Z,2024
2018-04-16T11:03:55.071Z,2004
2018-04-16T11:04:07.667Z,1992
2018-04-16T11:04:20.263Z,2000
2018-04-16T11:04:32.884Z,2048
2018-04-16T11:04:45.444Z,2132
2018-04-16T11:04:58.031Z,2232
2018-04-16T11:05:10.630Z,2376
2018-04-16T11:05:23.248Z,2524
2018-04-16T11:05:35.838Z,2656
2018-04-16T11:05:48.432Z,2732
2018-04-16T11:06:01.028Z,2740
2018-04-16T11:06:13.637Z,2728
2018-04-16T11:06:26.226Z,2780
2018-04-16T11:06:38.813Z,2888
2018-04-16T11:06:51.502Z,2948
2018-04-16T11:07:04.099Z,2972
2018-04-16T11:07:16.725Z,2956
2018-04-16T11:07:29.337Z,2936
2018-04-16T11:07:41.953Z,2940
2018-04-16T11:07:54.549Z,2956
2018-04-16T11:08:07.143Z,2964
2018-04-16T11:08:19.738Z,2932
2018-04-16T11:08:32.331Z,2860
2018-04-16T11:08:44.927Z,2720
2018-04-16T11:08:57.518Z,2540
2018-04-16T11:09:10.116Z,2360
2018-04-16T11:09:22.713Z,2208
2018-04-16T11:09:35.323Z,2104
2018-04-16T11:09:47.922Z,2036
2018-04-16T11:10:00.506Z,1976
2018-04-16T11:10:13.099Z,1916
2018-04-16T11:10:25.692Z,1868
2018-04-16T11:10:38.289Z,1856
2018-04-16T11:10:50.878Z,1864
2018-04-16T11:11:03.474Z,1852
2018-04-16T11:11:16.089Z,1840
2018-04-16T11:11:28.678Z,1816
2018-04-16T11:11:41.326Z,1780
2018-04-16T11:11:53.936Z,1736
2018-04-16T11:12:06.527Z,1716
2018-04-16T11:12:19.118Z,1680
2018-04-16T11:12:31.709Z,1640
2018-04-16T11:12:44.304Z,1628